Time;durP1;ratioP1;P1;durP2;ratioP2;P2;SDS_P1;SDS_P2;PMS_P1;PMS_P2;Temp;Humidity;BMP_temperature;BMP_pressure;BME280_temperature;BME280_humidity;BME280_pressure;Samples;Min_cycle;Max_cycle;Signal;HPM_P1;HPM_P2
2023/10/05 00:02:08;;;;;;;11.60;4.40;;;;;;;21.87;59.36;101490.65;2320998;76;52361;-77
2023/10/05 00:05:00;;;;;;;10.45;4.78;;;;;;;21.85;59.37;101485.44;2319161;75;22261;-78
2023/10/05 00:08:08;;;;;;;14.60;4.95;;;;;;;21.84;59.35;101481.08;2321345;76;51396;-77
2023/10/05 00:11:07;;;;;;;9.50;4.42;;;;;;;21.84;59.29;101485.13;2292442;76;22354;-77
2023/10/05 00:14:10;;;;;;;8.75;3.98;;;;;;;21.86;59.25;101481.73;2266532;76;51426;-77
2023/10/05 00:17:12;;;;;;;10.58;4.42;;;;;;;21.85;59.26;101480.56;2311044;75;50388;-77
2023/10/05 00:20:21;;;;;;;9.75;4.33;;;;;;;21.83;59.28;101469.95;2338232;76;50196;-76
2023/10/05 00:23:19;;;;;;;8.55;4.03;;;;;;;21.84;59.22;101471.65;2341605;75;22396;-78
2023/10/05 00:26:22;;;;;;;10.10;4.20;;;;;;;21.84;59.23;101475.69;2322819;76;49972;-77
2023/10/05 00:29:27;;;;;;;10.28;4.47;;;;;;;21.83;59.20;101481.25;2322607;76;51558;-77
2023/10/05 00:32:40;;;;;;;7.90;4.10;;;;;;;21.83;59.21;101483.95;2342212;75;22345;-77
2023/10/05 00:35:42;;;;;;;10.90;4.28;;;;;;;21.83;59.13;101484.77;2342747;76;50673;-78
2023/10/05 00:38:44;;;;;;;10.43;4.70;;;;;;;21.82;59.17;101480.94;2322949;76;50285;-78
2023/10/05 00:42:08;;;;;;;9.90;4.80;;;;;;;21.82;59.18;101472.34;2296366;76;50924;-77
2023/10/05 00:44:55;;;;;;;10.15;4.33;;;;;;;21.82;59.17;101477.73;2336233;75;22976;-77
2023/10/05 00:48:08;;;;;;;8.78;4.37;;;;;;;21.81;59.15;101472.51;2317585;76;50276;-77
2023/10/05 00:51:55;;;;;;;9.78;5.00;;;;;;;21.81;59.13;101475.20;2340327;75;22419;-76
2023/10/05 00:54:10;;;;;;;10.58;4.05;;;;;;;21.81;59.11;101468.47;2316272;76;22672;-77
2023/10/05 00:57:14;;;;;;;12.82;4.70;;;;;;;21.81;59.08;101470.67;2342343;75;23061;-77
2023/10/05 01:00:28;;;;;;;9.45;4.22;;;;;;;21.79;59.09;101467.33;2342619;75;22410;-76
2023/10/05 01:03:47;;;;;;;10.98;4.03;;;;;;;21.79;59.11;101465.98;2342535;76;51465;-77
2023/10/05 01:06:41;;;;;;;8.25;4.33;;;;;;;21.79;59.08;101463.28;2341612;75;22356;-77
2023/10/05 01:10:21;;;;;;;9.75;3.95;;;;;;;21.80;59.05;101462.77;2349624;75;51544;-78
2023/10/05 01:13:00;;;;;;;10.30;4.40;;;;;;;21.79;59.02;101463.80;2339855;76;22215;-77
2023/10/05 01:16:19;;;;;;;8.65;4.35;;;;;;;21.77;59.05;101453.20;2349201;75;51452;-77
2023/10/05 01:19:10;;;;;;;10.03;4.37;;;;;;;21.78;59.02;101448.64;2327571;75;22467;-77
2023/10/05 01:22:16;;;;;;;10.35;4.28;;;;;;;21.77;59.00;101442.94;2322129;76;49453;-77
2023/10/05 01:25:16;;;;;;;8.33;3.90;;;;;;;21.77;59.01;101440.24;2348790;75;22949;-76
2023/10/05 01:28:19;;;;;;;8.13;4.47;;;;;;;21.76;58.98;101425.95;2342271;76;50728;-76
2023/10/05 01:31:21;;;;;;;7.45;3.85;;;;;;;21.76;59.00;101411.12;2296706;76;51296;-77
2023/10/05 01:34:24;;;;;;;9.58;4.40;;;;;;;21.77;58.94;101410.09;2322354;76;50276;-76
2023/10/05 01:37:31;;;;;;;12.88;4.08;;;;;;;21.76;58.91;101411.12;2322815;76;51457;-76
2023/10/05 01:40:30;;;;;;;9.75;4.45;;;;;;;21.74;58.91;101400.53;2323075;76;22852;-76
2023/10/05 01:43:42;;;;;;;10.85;4.12;;;;;;;21.76;58.93;101396.31;2342354;76;51494;-77
2023/10/05 01:46:37;;;;;;;9.40;4.05;;;;;;;21.75;58.91;101406.75;2328858;75;22333;-77
2023/10/05 01:49:41;;;;;;;10.58;4.33;;;;;;;21.75;58.87;101393.28;2323078;76;50712;-77
2023/10/05 01:52:45;;;;;;;8.53;4.37;;;;;;;21.74;58.85;101404.56;2310541;76;51477;-76
2023/10/05 01:55:52;;;;;;;7.47;3.75;;;;;;;21.75;58.85;101398.66;2308862;76;22356;-77
2023/10/05 01:58:54;;;;;;;9.60;4.15;;;;;;;21.74;58.82;101398.35;2309342;76;22416;-75
2023/10/05 02:01:56;;;;;;;9.18;4.10;;;;;;;21.74;58.79;101395.66;2308402;76;50335;-77
2023/10/05 02:04:59;;;;;;;9.88;4.15;;;;;;;21.74;58.78;101391.61;2334590;75;50312;-76
2023/10/05 02:08:02;;;;;;;10.23;3.92;;;;;;;21.75;58.77;101406.75;2330389;75;50589;-79
2023/10/05 02:11:06;;;;;;;8.95;3.30;;;;;;;21.73;58.76;101393.97;2308141;76;51788;-77
2023/10/05 02:14:12;;;;;;;9.08;4.37;;;;;;;21.73;58.74;101389.92;2308603;76;24676;-76
2023/10/05 02:17:13;;;;;;;9.10;4.30;;;;;;;21.74;58.68;101390.27;2312230;76;22568;-77
2023/10/05 02:23:47;;;;;;;10.10;4.40;;;;;;;21.72;58.69;101382.87;2301562;76;22794;-77
2023/10/05 02:26:54;;;;;;;9.48;3.80;;;;;;;21.72;58.68;101378.84;2302432;76;22332;-75
2023/10/05 02:29:47;;;;;;;10.23;4.10;;;;;;;21.72;58.66;101373.45;2306721;76;22297;-76
2023/10/05 02:32:49;;;;;;;9.38;4.70;;;;;;;21.71;58.65;101367.75;2301630;76;51468;-73
2023/10/05 02:35:56;;;;;;;9.03;3.62;;;;;;;21.72;58.61;101369.41;2308145;76;51103;-74
2023/10/05 02:38:56;;;;;;;8.45;4.05;;;;;;;21.72;58.53;101357.29;2308452;76;22421;-77
2023/10/05 02:42:00;;;;;;;7.95;3.95;;;;;;;21.71;58.55;101361.84;2308361;76;50248;-76
2023/10/05 02:45:05;;;;;;;8.75;4.03;;;;;;;21.71;58.55;101359.67;2307380;76;50864;-75
2023/10/05 02:48:10;;;;;;;6.92;3.37;;;;;;;21.70;58.54;101348.55;2292969;76;51529;-77
2023/10/05 02:51:13;;;;;;;8.90;3.50;;;;;;;21.71;58.53;101359.67;2307025;75;22324;-76
2023/10/05 02:54:15;;;;;;;8.93;3.92;;;;;;;21.70;58.49;101344.52;2332868;76;22945;-76
2023/10/05 02:57:19;;;;;;;7.25;3.77;;;;;;;21.68;58.51;101354.14;2318854;76;51468;-76
2023/10/05 03:00:22;;;;;;;9.93;3.70;;;;;;;21.69;58.47;101350.94;2281240;76;51174;-76
2023/10/05 03:03:24;;;;;;;8.53;4.10;;;;;;;21.69;58.46;101344.20;2332655;76;51517;-76
2023/10/05 03:06:27;;;;;;;13.50;4.35;;;;;;;21.69;58.45;101346.89;2306506;75;50658;-77
2023/10/05 05:10:03;;;;;;;18.82;4.83;;;;;;;21.07;61.25;101257.37;2444831;72;25273;-75
2023/10/05 05:13:04;;;;;;;24.10;5.40;;;;;;;21.06;61.65;101254.34;2376844;73;22704;-76
2023/10/05 05:16:08;;;;;;;22.40;5.65;;;;;;;21.12;61.71;101254.62;2319675;73;51404;-75
2023/10/05 05:19:10;;;;;;;17.27;5.75;;;;;;;21.16;61.52;101260.80;2355794;75;50142;-76
2023/10/05 05:22:13;;;;;;;25.57;5.67;;;;;;;21.22;61.42;101258.72;2310701;75;52308;-76
2023/10/05 05:25:19;;;;;;;23.47;5.40;;;;;;;21.26;61.47;101261.87;2328828;75;49914;-77
2023/10/05 05:28:19;;;;;;;20.62;5.37;;;;;;;21.32;61.08;101244.96;2336431;75;23434;-74
2023/10/05 05:31:21;;;;;;;20.77;5.22;;;;;;;21.38;61.14;101244.27;2309917;75;50749;-76
2023/10/05 05:34:25;;;;;;;23.32;4.83;;;;;;;21.41;60.93;101237.16;2336055;75;50205;-75
2023/10/05 05:37:30;;;;;;;27.60;5.28;;;;;;;21.45;60.67;101241.16;2336450;75;51406;-76
2023/10/05 05:40:36;;;;;;;21.07;4.90;;;;;;;21.47;60.55;101241.78;2337265;75;51526;-75
2023/10/05 05:43:36;;;;;;;23.73;5.67;;;;;;;21.51;60.38;101244.95;2363409;75;23115;-76
2023/10/05 05:46:38;;;;;;;25.68;4.67;;;;;;;21.54;60.38;101241.88;2329091;73;50977;-75
2023/10/05 05:49:41;;;;;;;36.15;6.25;;;;;;;21.56;60.32;101253.81;2342227;74;50138;-74
2023/10/05 05:52:45;;;;;;;32.83;5.60;;;;;;;21.59;60.14;101235.93;2369019;74;50652;-74
2023/10/05 05:55:52;;;;;;;21.60;4.75;;;;;;;21.61;60.22;101255.43;2316448;74;52418;-75
2023/10/05 05:58:51;;;;;;;21.48;5.17;;;;;;;21.57;60.43;101244.19;2368951;74;22273;-75
2023/10/05 06:01:53;;;;;;;25.20;5.55;;;;;;;21.61;60.25;101247.35;2380123;74;50174;-74
2023/10/05 06:04:56;;;;;;;23.52;5.75;;;;;;;21.63;60.08;101251.53;2342164;74;50122;-74
2023/10/05 06:08:01;;;;;;;25.40;4.78;;;;;;;21.63;60.20;101252.02;2339401;74;51738;-74
2023/10/05 06:11:07;;;;;;;22.65;5.12;;;;;;;21.61;60.12;101260.30;2363969;75;22181;-75
2023/10/05 06:14:06;;;;;;;22.30;5.53;;;;;;;21.60;60.20;101249.19;2362951;75;22757;-75
2023/10/05 06:17:09;;;;;;;28.83;5.22;;;;;;;21.63;60.46;101245.28;2333358;75;50570;-76
2023/10/05 06:20:14;;;;;;;21.52;4.90;;;;;;;21.64;60.20;101251.01;2317358;75;52431;-75
2023/10/05 06:23:17;;;;;;;24.07;5.60;;;;;;;21.65;60.19;101243.23;2363367;75;51425;-75
2023/10/05 06:26:19;;;;;;;26.68;5.30;;;;;;;21.64;60.30;101246.97;2348248;75;51428;-75
2023/10/05 06:29:21;;;;;;;20.80;5.60;;;;;;;21.64;60.38;101249.66;2329951;75;51408;-75
2023/10/05 06:32:23;;;;;;;37.98;5.62;;;;;;;21.61;60.49;101248.70;2354889;75;50341;-75
2023/10/05 06:35:25;;;;;;;32.45;5.47;;;;;;;21.62;60.42;101254.39;2304355;75;50149;-75
2023/10/05 06:38:28;;;;;;;23.77;5.00;;;;;;;21.61;60.52;101248.70;2328732;75;51364;-75
2023/10/05 06:41:30;;;;;;;22.17;5.28;;;;;;;21.61;60.39;101251.39;2328170;75;51355;-75
2023/10/05 06:44:33;;;;;;;23.22;5.25;;;;;;;21.60;60.41;101253.74;2277890;75;52221;-75
2023/10/05 06:47:39;;;;;;;24.60;5.40;;;;;;;21.62;60.31;101249.84;2338999;75;51402;-75
2023/10/05 06:50:43;;;;;;;20.57;5.47;;;;;;;21.62;60.27;101244.45;2363218;75;51434;-75
2023/10/05 06:53:45;;;;;;;21.20;4.75;;;;;;;21.62;60.23;101239.58;2336000;75;51491;-75
2023/10/05 06:56:49;;;;;;;22.45;5.58;;;;;;;21.62;60.16;101239.58;2363605;75;50230;-75
2023/10/05 06:59:55;;;;;;;25.60;4.85;;;;;;;21.61;60.13;101236.58;2336662;75;24561;-75
2023/10/05 07:03:06;;;;;;;23.22;4.67;;;;;;;21.61;60.08;101236.58;2363206;75;22245;-75
2023/10/05 07:06:00;;;;;;;20.32;4.85;;;;;;;21.62;60.05;101249.01;2333663;75;22950;-75
2023/10/05 07:09:02;;;;;;;19.30;4.35;;;;;;;21.62;59.94;101246.31;2360028;75;51512;-75
2023/10/05 07:12:05;;;;;;;16.82;4.58;;;;;;;21.61;59.92;101246.00;2322441;75;50542;-76
2023/10/05 07:15:08;;;;;;;18.95;4.78;;;;;;;21.59;59.89;101246.19;2322281;75;50582;-76
2023/10/05 07:18:10;;;;;;;18.42;5.40;;;;;;;21.59;59.88;101250.73;2354936;75;51376;-75
2023/10/05 07:21:12;;;;;;;16.45;4.20;;;;;;;21.60;59.82;101252.39;2361906;75;51372;-75
2023/10/05 07:24:14;;;;;;;18.73;5.25;;;;;;;21.60;59.79;101253.74;2361670;75;50316;-75
2023/10/05 07:27:18;;;;;;;17.70;4.90;;;;;;;21.60;59.69;101263.17;2356184;75;50587;-75
2023/10/05 07:30:20;;;;;;;15.48;4.30;;;;;;;21.62;59.66;101264.66;2329692;75;50249;-75
2023/10/05 07:33:23;;;;;;;14.90;4.72;;;;;;;21.61;59.63;101260.81;2303195;75;49319;-75
2023/10/05 07:36:25;;;;;;;17.27;4.60;;;;;;;21.61;59.60;101263.52;2361956;75;51463;-74
2023/10/05 07:39:28;;;;;;;14.07;4.62;;;;;;;21.62;59.54;101271.91;2362055;75;51342;-75
2023/10/05 07:42:30;;;;;;;20.45;5.25;;;;;;;21.60;59.50;101271.25;2356121;75;50175;-75
2023/10/05 07:45:33;;;;;;;16.45;4.70;;;;;;;21.58;59.53;101279.53;2356610;75;50518;-75
2023/10/05 07:48:36;;;;;;;15.40;4.60;;;;;;;21.61;59.48;101289.09;2307406;75;51539;-77
2023/10/05 07:51:38;;;;;;;16.50;5.20;;;;;;;21.61;59.48;101293.13;2323569;75;50250;-74
2023/10/05 07:54:40;;;;;;;17.30;4.70;;;;;;;21.62;59.44;101294.80;2358319;75;51339;-75
2023/10/05 07:57:42;;;;;;;12.68;4.53;;;;;;;21.62;59.44;101298.31;2297670;75;50955;-75
2023/10/05 08:00:45;;;;;;;15.60;4.87;;;;;;;21.63;59.41;101299.14;2323809;75;50150;-76
2023/10/05 08:03:47;;;;;;;15.10;4.72;;;;;;;21.64;59.38;101311.61;2358377;75;51470;-75
2023/10/05 08:06:50;;;;;;;12.93;4.17;;;;;;;21.64;59.30;101299.48;2323664;75;50185;-76
2023/10/05 08:09:55;;;;;;;11.38;3.83;;;;;;;21.64;59.29;101308.91;2379014;74;50207;-75
2023/10/05 08:12:56;;;;;;;14.93;4.87;;;;;;;21.63;59.25;101308.57;2372538;74;22433;-75
2023/10/05 08:15:59;;;;;;;14.95;4.20;;;;;;;21.63;59.25;101315.30;2361322;74;51381;-75
2023/10/05 08:19:01;;;;;;;19.00;4.28;;;;;;;21.64;59.21;101303.53;2321140;75;52119;-75
2023/10/05 08:22:03;;;;;;;14.03;4.62;;;;;;;21.61;59.24;101315.51;2331904;75;51357;-75
2023/10/05 08:25:10;;;;;;;11.93;4.33;;;;;;;21.62;59.14;101311.78;2331742;75;51398;-75
2023/10/05 08:28:10;;;;;;;12.88;4.28;;;;;;;21.61;59.18;101320.06;2332522;75;22356;-74
2023/10/05 08:31:13;;;;;;;12.70;5.00;;;;;;;21.61;59.18;101320.06;2331965;75;50657;-75
2023/10/05 08:34:20;;;;;;;13.85;4.08;;;;;;;21.61;59.18;101318.72;2358552;75;51332;-75
2023/10/05 08:37:22;;;;;;;16.17;4.67;;;;;;;21.60;59.17;101322.41;2366602;75;22343;-76
2023/10/05 08:40:38;;;;;;;15.55;4.17;;;;;;;21.59;59.19;101324.80;2367024;75;22309;-75
2023/10/05 08:43:33;;;;;;;10.13;4.33;;;;;;;21.58;59.08;101322.63;2356543;75;22268;-75
2023/10/05 08:46:46;;;;;;;11.15;4.17;;;;;;;21.57;59.07;101326.31;2312190;75;52491;-75
2023/10/05 08:49:46;;;;;;;8.98;3.80;;;;;;;21.59;59.05;101332.88;2337533;75;22383;-75
2023/10/05 08:52:48;;;;;;;12.13;4.00;;;;;;;21.57;59.11;101328.18;2338044;76;50681;-75
2023/10/05 08:55:54;;;;;;;12.68;4.10;;;;;;;21.57;59.07;101319.59;2338247;75;51478;-74
2023/10/05 08:58:54;;;;;;;9.73;3.83;;;;;;;21.55;59.03;101323.48;2301536;76;22296;-74
2023/10/05 09:01:59;;;;;;;9.23;3.60;;;;;;;21.56;59.05;101318.44;2301273;76;51046;-74
2023/10/05 09:05:00;;;;;;;9.20;3.22;;;;;;;21.55;59.00;101313.55;2301788;75;22362;-75
2023/10/05 09:08:03;;;;;;;12.18;3.98;;;;;;;21.56;58.99;101317.92;2338305;76;51509;-74
2023/10/05 09:11:08;;;;;;;9.80;4.28;;;;;;;21.53;58.96;101315.09;2309321;74;49527;-75
2023/10/05 09:14:13;;;;;;;11.25;4.00;;;;;;;21.55;58.94;101322.14;2341302;74;22877;-76
2023/10/05 09:17:16;;;;;;;8.45;3.60;;;;;;;21.57;58.89;101312.02;2376051;74;51588;-75
2023/10/05 09:20:22;;;;;;;10.93;3.90;;;;;;;21.57;58.88;101313.37;2354981;75;50290;-76
2023/10/05 09:23:26;;;;;;;10.18;4.08;;;;;;;21.58;58.78;101319.92;2369852;75;50207;-75
2023/10/05 09:26:37;;;;;;;13.00;3.65;;;;;;;21.55;58.82;101326.18;2334884;74;50249;-76
2023/10/05 09:29:39;;;;;;;9.43;3.80;;;;;;;21.55;58.76;101324.31;2312849;74;22267;-74
2023/10/05 09:32:41;;;;;;;7.30;3.55;;;;;;;21.55;58.82;101322.14;2309104;75;50033;-74
2023/10/05 09:35:46;;;;;;;9.13;3.52;;;;;;;21.54;58.83;101317.27;2283962;75;49227;-75
2023/10/05 09:38:48;;;;;;;10.70;3.70;;;;;;;21.52;58.87;101316.09;2334423;75;22130;-75
2023/10/05 09:41:51;;;;;;;15.10;3.52;;;;;;;21.51;58.85;101324.38;2334105;75;51466;-75
2023/10/05 09:45:06;;;;;;;8.28;3.55;;;;;;;21.50;58.82;101323.55;2369795;74;50140;-75
2023/10/05 09:48:03;;;;;;;9.70;4.10;;;;;;;21.51;58.88;101325.73;2369780;74;22648;-75
2023/10/05 09:51:14;;;;;;;11.70;4.15;;;;;;;21.52;58.81;101326.87;2350659;75;50001;-75
2023/10/05 09:54:13;;;;;;;9.83;3.70;;;;;;;21.51;58.78;101329.25;2376575;74;23212;-75
2023/10/05 09:57:21;;;;;;;8.83;3.52;;;;;;;21.49;58.80;101335.33;2373726;75;50533;-75
2023/10/05 10:03:46;;;;;;;7.92;3.22;;;;;;;21.49;58.79;101335.33;2354587;75;22174;-76
2023/10/05 10:06:53;;;;;;;9.38;3.40;;;;;;;21.48;58.74;101333.67;2372842;74;22415;-76
2023/10/05 10:09:53;;;;;;;7.90;3.27;;;;;;;21.47;58.81;101337.88;2371610;73;22191;-76
2023/10/05 10:12:54;;;;;;;7.42;3.40;;;;;;;21.47;58.78;101342.75;2359221;74;22672;-76
2023/10/05 10:15:58;;;;;;;8.35;3.42;;;;;;;21.46;58.77;101338.39;2345252;75;52360;-76
2023/10/05 10:19:08;;;;;;;7.28;3.15;;;;;;;21.46;58.74;101334.36;2358219;75;50291;-76
2023/10/05 10:22:12;;;;;;;8.28;3.40;;;;;;;21.47;58.64;101336.02;2357036;75;51587;-74
2023/10/05 10:25:30;;;;;;;9.00;3.37;;;;;;;21.46;58.66;101349.16;2355180;75;22362;-74
2023/10/05 10:32:18;;;;;;;10.18;3.20;;;;;;;21.44;58.65;101341.77;2355419;75;22349;-75
2023/10/05 10:35:26;;;;;;;7.50;3.40;;;;;;;21.44;58.61;101355.23;2354944;75;22372;-74
2023/10/05 10:38:21;;;;;;;8.75;3.60;;;;;;;21.43;58.55;101348.20;2328676;75;22603;-75
2023/10/05 10:41:27;;;;;;;8.25;3.05;;;;;;;21.44;58.54;101359.27;2294368;75;51264;-74
2023/10/05 10:44:28;;;;;;;5.62;2.92;;;;;;;21.42;58.54;101361.83;2356355;75;22345;-76
2023/10/05 10:47:36;;;;;;;8.80;3.30;;;;;;;21.42;58.50;101350.55;2344405;74;50218;-75
2023/10/05 10:50:37;;;;;;;9.40;3.65;;;;;;;21.43;58.58;101360.31;2358348;74;22275;-76
2023/10/05 10:53:40;;;;;;;8.43;3.52;;;;;;;21.42;58.54;101362.66;2325186;75;50264;-76
2023/10/05 10:56:42;;;;;;;8.68;2.95;;;;;;;21.42;58.49;101373.42;2355091;75;51346;-75
2023/10/05 10:59:46;;;;;;;7.20;3.27;;;;;;;21.41;58.46;101369.08;2330114;75;51575;-75
2023/10/05 11:02:49;;;;;;;6.37;2.70;;;;;;;21.41;58.45;101370.42;2354744;75;51429;-75
2023/10/05 11:06:04;;;;;;;5.95;3.05;;;;;;;21.41;58.46;101371.77;2330006;75;51258;-75
2023/10/05 11:09:09;;;;;;;7.20;3.20;;;;;;;21.40;58.42;101376.84;2353667;75;22338;-74
2023/10/05 11:12:10;;;;;;;6.12;3.17;;;;;;;21.41;58.44;101383.88;2364678;75;22300;-75
2023/10/05 11:15:18;;;;;;;8.10;3.58;;;;;;;21.40;58.43;101378.19;2336733;75;51568;-75
2023/10/05 11:18:20;;;;;;;9.53;3.47;;;;;;;21.39;58.40;101383.22;2349195;73;22310;-75
2023/10/05 11:21:25;;;;;;;6.35;2.80;;;;;;;21.39;58.36;101377.84;2336648;75;50094;-75
2023/10/05 11:24:27;;;;;;;5.83;2.95;;;;;;;21.40;58.36;101386.75;2335981;75;22367;-75
2023/10/05 11:27:36;;;;;;;7.58;3.47;;;;;;;21.39;58.36;101380.53;2370617;75;50289;-74
2023/10/05 11:30:45;;;;;;;7.17;3.58;;;;;;;21.39;58.34;101383.22;2335118;75;22548;-76
2023/10/05 11:33:47;;;;;;;5.15;3.15;;;;;;;21.38;58.31;101377.52;2363300;74;22323;-76
2023/10/05 11:36:52;;;;;;;6.15;2.85;;;;;;;21.38;58.27;101373.48;2309288;75;49548;-75
2023/10/05 11:40:00;;;;;;;5.62;2.60;;;;;;;21.38;58.20;101388.30;2336082;75;22427;-75
2023/10/05 11:42:58;;;;;;;8.28;2.72;;;;;;;21.38;58.23;101389.64;2361557;75;22667;-75
2023/10/05 11:46:24;;;;;;;5.90;3.12;;;;;;;21.37;58.25;101393.81;2370659;75;51470;-74
2023/10/05 11:49:19;;;;;;;5.67;2.87;;;;;;;21.38;58.15;101392.81;2361250;75;22807;-75
2023/10/05 11:52:23;;;;;;;7.40;3.10;;;;;;;21.37;58.20;101404.07;2370320;75;50161;-74
2023/10/05 11:55:26;;;;;;;7.60;3.10;;;;;;;21.38;58.23;101408.97;2309430;75;52614;-75
2023/10/05 11:58:28;;;;;;;7.87;3.10;;;;;;;21.37;58.12;101412.66;2335674;75;50076;-75
2023/10/05 12:01:32;;;;;;;7.28;3.25;;;;;;;21.37;58.12;101402.72;2370486;75;50310;-75
2023/10/05 12:04:39;;;;;;;5.80;3.00;;;;;;;21.36;58.16;101398.38;2283129;75;50997;-75
2023/10/05 12:07:45;;;;;;;5.00;2.80;;;;;;;21.38;58.09;101394.16;2335421;75;22295;-74
2023/10/05 12:10:45;;;;;;;6.15;3.30;;;;;;;21.36;58.10;101394.33;2367479;75;22390;-74
2023/10/05 12:13:46;;;;;;;7.58;2.83;;;;;;;21.37;58.12;101393.30;2330169;75;22171;-74
2023/10/05 12:16:48;;;;;;;7.33;2.95;;;;;;;21.37;58.05;101381.70;2344174;74;51330;-75
2023/10/05 12:19:54;;;;;;;6.75;2.95;;;;;;;21.37;58.04;101385.74;2336983;75;51690;-73
2023/10/05 12:22:59;;;;;;;4.22;2.67;;;;;;;21.36;58.14;101383.56;2354696;75;50647;-73
2023/10/05 12:26:03;;;;;;;4.33;2.55;;;;;;;21.35;58.10;101387.29;2355076;75;23313;-74
2023/10/05 12:29:04;;;;;;;4.47;2.70;;;;;;;21.36;58.08;101392.16;2330119;75;22450;-75
2023/10/05 12:32:09;;;;;;;5.25;2.95;;;;;;;21.34;58.05;101385.59;2329585;75;51433;-76
2023/10/05 12:35:14;;;;;;;5.85;2.85;;;;;;;21.36;58.10;101393.50;2330212;75;21781;-74
2023/10/05 12:38:16;;;;;;;4.53;2.67;;;;;;;21.36;58.07;101397.02;2295620;75;51500;-74
2023/10/05 12:41:18;;;;;;;6.30;2.62;;;;;;;21.36;58.08;101392.16;2330506;74;50577;-74
2023/10/05 12:44:21;;;;;;;7.62;2.85;;;;;;;21.34;58.05;101396.88;2325718;74;50983;-75
2023/10/05 12:47:23;;;;;;;7.08;3.25;;;;;;;21.35;58.11;101388.64;2367749;74;50255;-75
2023/10/05 12:50:31;;;;;;;8.68;3.05;;;;;;;21.34;58.03;101389.64;2357612;74;50234;-75
2023/10/05 12:53:31;;;;;;;6.15;3.33;;;;;;;21.31;57.83;101393.53;2355713;74;22992;-75
2023/10/05 12:56:33;;;;;;;7.90;3.37;;;;;;;21.30;57.07;101395.91;2376284;74;51328;-75
2023/10/05 12:59:35;;;;;;;10.50;3.33;;;;;;;21.29;56.35;101388.00;2396564;74;51256;-75
2023/10/05 13:02:37;;;;;;;20.97;5.35;;;;;;;21.26;56.34;101385.17;2370068;74;50037;-74
2023/10/05 13:05:47;;;;;;;12.80;4.97;;;;;;;21.31;54.92;101393.53;2339860;75;50219;-75
2023/10/05 13:08:50;;;;;;;9.75;4.12;;;;;;;21.17;54.53;101399.73;2355177;75;22436;-74
2023/10/05 13:11:53;;;;;;;12.73;4.12;;;;;;;20.90;54.54;101405.16;2389261;73;51515;-74
2023/10/05 13:14:55;;;;;;;14.60;4.05;;;;;;;20.90;54.86;101413.75;2370557;74;50576;-74
2023/10/05 13:17:58;;;;;;;9.78;3.80;;;;;;;20.93;55.11;101426.31;2361220;74;50223;-74
2023/10/05 13:21:01;;;;;;;10.08;4.05;;;;;;;20.95;55.09;101446.33;2356845;75;51258;-74
2023/10/05 13:24:04;;;;;;;10.88;3.85;;;;;;;20.98;55.17;101466.14;2354585;75;50739;-75
2023/10/05 13:27:07;;;;;;;14.20;3.95;;;;;;;20.99;55.25;101470.49;2356666;74;51417;-75
2023/10/05 13:30:10;;;;;;;9.50;3.50;;;;;;;20.98;55.52;101481.77;2368852;74;51366;-75
2023/10/05 13:33:21;;;;;;;11.40;3.98;;;;;;;21.00;55.71;101472.19;2342157;74;51199;-74
2023/10/05 13:36:20;;;;;;;13.93;4.03;;;;;;;21.01;55.74;101476.54;2369689;74;22323;-75
2023/10/05 13:39:25;;;;;;;12.35;3.90;;;;;;;21.02;55.81;101479.06;2343647;74;50702;-75
2023/10/05 13:42:26;;;;;;;8.83;3.60;;;;;;;21.02;55.90;101477.72;2371021;74;22391;-74
2023/10/05 13:45:29;;;;;;;10.03;3.72;;;;;;;21.01;55.97;101474.68;2368802;74;51399;-75
2023/10/05 13:48:32;;;;;;;11.33;4.00;;;;;;;21.03;56.03;101475.34;2356754;75;50369;-74
2023/10/05 13:51:35;;;;;;;8.68;3.77;;;;;;;21.02;56.07;101476.89;2336210;75;51456;-74
2023/10/05 13:54:37;;;;;;;8.40;4.00;;;;;;;21.02;56.12;101480.41;2362518;75;50556;-76
2023/10/05 13:57:39;;;;;;;8.05;3.62;;;;;;;21.05;56.15;101480.05;2363690;75;51452;-76
2023/10/05 14:00:42;;;;;;;13.10;3.80;;;;;;;21.04;56.18;101460.89;2309780;75;51347;-75
2023/10/05 14:03:54;;;;;;;9.53;4.33;;;;;;;21.03;56.22;101471.31;2335571;75;50735;-74
2023/10/05 14:06:58;;;;;;;7.62;3.95;;;;;;;21.04;56.26;101467.63;2338242;75;50643;-75
2023/10/05 14:10:00;;;;;;;11.05;3.65;;;;;;;21.05;56.28;101465.76;2336671;75;22833;-76
2023/10/05 14:13:02;;;;;;;7.80;3.83;;;;;;;21.05;56.33;101460.37;2330323;76;50578;-75
2023/10/05 14:16:04;;;;;;;9.30;4.17;;;;;;;21.05;56.34;101462.55;2274525;76;52362;-76
2023/10/05 14:19:07;;;;;;;7.42;3.95;;;;;;;21.06;56.40;101450.77;2294855;76;51366;-76
2023/10/05 14:22:12;;;;;;;8.15;3.95;;;;;;;21.05;56.38;101453.14;2326434;76;51548;-75
2023/10/05 14:25:22;;;;;;;7.28;3.50;;;;;;;21.07;56.43;101454.31;2263428;76;22466;-76
2023/10/05 14:28:25;;;;;;;7.35;3.55;;;;;;;21.06;56.41;101457.48;2294795;76;22422;-74
2023/10/05 14:31:29;;;;;;;7.67;3.60;;;;;;;21.07;56.42;101460.53;2326770;76;51509;-74
2023/10/05 14:34:32;;;;;;;6.55;3.20;;;;;;;21.07;56.44;101455.15;2292827;76;50145;-74
2023/10/05 14:37:34;;;;;;;6.62;3.25;;;;;;;21.08;56.45;101468.91;2292595;76;51564;-74
2023/10/05 14:40:37;;;;;;;7.12;3.40;;;;;;;21.07;56.49;101480.71;2318498;76;49498;-75
2023/10/05 14:43:44;;;;;;;8.95;3.50;;;;;;;21.08;56.47;101478.84;2326380;76;51544;-75
2023/10/05 14:46:49;;;;;;;8.83;3.62;;;;;;;21.08;56.51;101475.64;2336015;75;22281;-75
2023/10/05 14:49:48;;;;;;;7.50;3.45;;;;;;;21.07;56.50;101488.78;2310638;76;22380;-75
2023/10/05 14:52:50;;;;;;;6.97;3.47;;;;;;;21.07;56.54;101487.44;2326356;76;50265;-75
2023/10/05 14:55:56;;;;;;;6.92;3.72;;;;;;;21.07;56.56;101484.75;2326595;76;51544;-76
2023/10/05 14:58:57;;;;;;;8.53;3.67;;;;;;;21.08;56.56;101479.68;2301348;76;22502;-76
2023/10/05 15:01:59;;;;;;;7.22;3.35;;;;;;;21.08;56.54;101473.47;2326483;76;51503;-75
2023/10/05 15:05:02;;;;;;;8.18;4.03;;;;;;;21.09;56.54;101484.06;2297409;75;52524;-74
2023/10/05 15:08:04;;;;;;;8.35;3.42;;;;;;;21.07;56.60;101483.40;2317986;76;50456;-75
2023/10/05 15:11:09;;;;;;;7.97;3.58;;;;;;;21.06;56.72;101472.29;2267974;75;51367;-76
2023/10/05 15:14:11;;;;;;;8.98;4.12;;;;;;;21.06;56.74;101475.50;2312465;75;51889;-75
2023/10/05 15:17:14;;;;;;;9.23;4.40;;;;;;;21.08;56.72;101470.78;2334181;75;50206;-76
2023/10/05 15:20:22;;;;;;;8.00;3.70;;;;;;;21.08;56.69;101473.47;2352092;73;50128;-76
2023/10/05 15:23:23;;;;;;;12.37;4.30;;;;;;;21.07;56.71;101483.40;2352113;75;23171;-75
2023/10/05 15:26:26;;;;;;;8.80;4.05;;;;;;;21.08;56.69;101485.06;2350992;75;51395;-75
2023/10/05 15:29:29;;;;;;;10.88;4.20;;;;;;;21.09;56.65;101492.14;2325046;75;51168;-75
2023/10/05 15:32:32;;;;;;;17.05;4.47;;;;;;;21.09;56.84;101496.66;2351309;73;50506;-74
2023/10/05 15:35:34;;;;;;;17.30;4.50;;;;;;;21.02;57.24;101488.48;2352006;75;51489;-76
2023/10/05 15:38:36;;;;;;;11.50;4.28;;;;;;;21.08;57.15;101499.86;2325209;75;51678;-75
2023/10/05 15:41:39;;;;;;;13.60;4.30;;;;;;;21.06;57.20;101496.51;2349288;73;52302;-75
2023/10/05 15:44:42;;;;;;;10.10;4.60;;;;;;;21.06;57.31;101496.51;2375636;73;50008;-75
2023/10/05 15:47:44;;;;;;;11.55;4.17;;;;;;;21.07;57.34;101506.27;2361645;73;51496;-75
2023/10/05 15:50:47;;;;;;;18.17;4.92;;;;;;;21.08;57.34;101505.76;2334830;73;50302;-76
2023/10/05 15:53:56;;;;;;;16.93;4.50;;;;;;;21.08;57.31;101512.48;2353902;73;52439;-76
2023/10/05 15:57:00;;;;;;;16.02;4.72;;;;;;;21.06;57.48;101514.00;2384537;74;22312;-76
2023/10/05 16:00:00;;;;;;;12.50;4.72;;;;;;;21.07;57.46;101514.34;2361590;75;22767;-77
2023/10/05 16:03:04;;;;;;;12.20;4.58;;;;;;;21.06;57.64;101518.03;2355601;73;52390;-76
2023/10/05 16:06:06;;;;;;;25.65;4.87;;;;;;;21.08;57.50;101517.87;2412359;73;51498;-76
2023/10/05 16:09:09;;;;;;;42.88;6.62;;;;;;;21.13;57.59;101520.03;2382830;73;50415;-74
2023/10/05 16:12:11;;;;;;;36.10;5.78;;;;;;;21.18;57.67;101522.52;2367173;73;51505;-74
2023/10/05 16:15:14;;;;;;;47.65;6.50;;;;;;;21.19;57.58;101532.76;2340232;75;50210;-75
2023/10/05 16:18:17;;;;;;;39.58;6.30;;;;;;;21.13;57.68;101536.17;2350538;74;52987;-76
2023/10/05 16:21:19;;;;;;;33.98;5.67;;;;;;;21.13;57.63;101540.22;2373612;74;50250;-74